Archibald, Louisiana
Current Conditions -  °F | °C
As of 10:53 AM on Wednesday 26 Nov 2014 (Local Time) from KMLU Reporting Station
Clear Clear  
Wind Chill: 61°   Ceiling: Unl
Heat Index: 61°   Visibility: 10mi
Dew Point: 38°   Wind: 18mph
Humidity: 42%   Direction: 230°SW
Pressure: 30.14"   Gusts: 28mph
Location:  32.35°N, 91.78°W
Report Text: KMLU 261653Z 23016G24KT 10SM CLR 16/03 A3014 RMK AO2 PK WND 22026/1613 SLP206 T01610033
Loading
Personal Weather Stations






























Interactive Weather Map New forecast layout! Learn more

10-Day Weather Forecast

Advertisements
Track Severe Weather on mobile